Time;durP1;ratioP1;P1;durP2;ratioP2;P2;SDS_P1;SDS_P2;PMS_P1;PMS_P2;Temp;Humidity;BMP_temperature;BMP_pressure;BME280_temperature;BME280_humidity;BME280_pressure;Samples;Min_cycle;Max_cycle;Signal;HPM_P1;HPM_P2
2021/06/07 00:01:00;;;;;;;2.17;0.88;;;23.40;54.30;;;;;;5030416;28;20049;-35
2021/06/07 00:03:27;;;;;;;1.30;0.90;;;23.50;54.20;;;;;;5035181;28;20038;-35
2021/06/07 00:05:52;;;;;;;1.95;1.10;;;23.40;54.30;;;;;;5047536;28;20515;-35
2021/06/07 00:08:18;;;;;;;2.28;1.50;;;23.30;54.50;;;;;;5032802;28;20025;-34
2021/06/07 00:10:44;;;;;;;1.70;1.10;;;23.30;54.40;;;;;;5031087;28;20029;-32
2021/06/07 00:13:10;;;;;;;1.70;1.15;;;23.30;54.50;;;;;;5036090;28;20037;-34
2021/06/07 00:15:35;;;;;;;1.85;1.27;;;23.20;54.60;;;;;;5032744;28;20037;-34
2021/06/07 00:18:02;;;;;;;1.33;1.20;;;23.40;54.40;;;;;;5050070;28;20454;-33
2021/06/07 00:20:27;;;;;;;1.50;1.30;;;23.40;54.30;;;;;;5033576;28;20407;-33
2021/06/07 00:22:53;;;;;;;1.30;1.20;;;23.50;54.00;;;;;;5030148;28;20021;-34
2021/06/07 00:25:19;;;;;;;1.90;0.90;;;23.50;54.10;;;;;;5049779;28;20107;-33
2021/06/07 00:27:44;;;;;;;1.13;1.02;;;23.40;54.10;;;;;;5033457;28;20043;-34
2021/06/07 00:30:11;;;;;;;1.45;1.27;;;23.40;54.30;;;;;;5032843;28;20025;-33
2021/06/07 00:32:36;;;;;;;2.35;1.05;;;23.30;54.50;;;;;;5032865;28;20495;-33
2021/06/07 00:35:02;;;;;;;3.95;1.30;;;23.20;54.60;;;;;;5030067;28;20072;-33
2021/06/07 00:37:28;;;;;;;1.25;0.93;;;23.20;54.60;;;;;;5034378;28;20026;-34
2021/06/07 00:39:53;;;;;;;1.42;1.10;;;23.10;54.80;;;;;;5049109;28;20037;-33
2021/06/07 00:42:19;;;;;;;1.23;0.93;;;23.10;54.90;;;;;;5035533;28;20029;-34
2021/06/07 00:44:46;;;;;;;1.60;1.10;;;23.20;54.60;;;;;;5031320;28;20063;-33
2021/06/07 00:47:12;;;;;;;1.63;1.15;;;23.20;54.60;;;;;;5037473;28;20034;-33
2021/06/07 00:49:37;;;;;;;1.95;1.17;;;23.10;54.80;;;;;;5032403;28;20361;-33
2021/06/07 00:52:03;;;;;;;1.52;1.00;;;23.10;54.70;;;;;;5034586;28;20113;-34
2021/06/07 00:54:29;;;;;;;1.48;1.20;;;23.10;54.70;;;;;;5030245;28;20396;-34
2021/06/07 00:56:54;;;;;;;1.70;1.10;;;23.20;54.50;;;;;;5034252;28;20053;-35
2021/06/07 00:59:20;;;;;;;1.30;1.20;;;23.20;54.50;;;;;;5031650;28;20032;-32
2021/06/07 01:01:45;;;;;;;2.83;1.20;;;23.30;54.30;;;;;;5029990;28;20101;-34
2021/06/07 01:04:11;;;;;;;2.22;1.00;;;23.30;54.30;;;;;;5050893;28;20032;-34
2021/06/07 01:06:37;;;;;;;1.17;1.05;;;23.30;54.20;;;;;;5039534;28;20489;-33
2021/06/07 01:09:06;;;;;;;1.23;0.80;;;23.30;54.10;;;;;;5038885;28;20438;-33
2021/06/07 01:11:32;;;;;;;1.67;1.13;;;23.20;54.30;;;;;;5032521;28;20127;-34
2021/06/07 01:13:58;;;;;;;2.03;1.17;;;23.20;54.20;;;;;;5030330;28;20033;-35
2021/06/07 01:16:23;;;;;;;1.25;1.15;;;23.20;54.30;;;;;;5030636;28;20080;-38
2021/06/07 01:18:49;;;;;;;1.10;1.00;;;23.20;54.40;;;;;;5030214;28;20400;-34
2021/06/07 01:21:22;;;;;;;2.08;1.10;;;23.20;54.30;;;;;;5033936;28;20028;-33
2021/06/07 01:23:48;;;;;;;2.00;1.17;;;23.20;54.40;;;;;;5046890;28;20392;-33
2021/06/07 01:26:15;;;;;;;1.55;0.93;;;23.10;54.50;;;;;;5029136;28;20036;-34
2021/06/07 01:28:41;;;;;;;1.60;1.00;;;23.00;54.40;;;;;;5031152;28;20025;-35
2021/06/07 01:31:08;;;;;;;1.98;1.05;;;23.00;54.60;;;;;;5034844;28;20070;-35
2021/06/07 01:33:34;;;;;;;2.65;1.05;;;22.90;54.70;;;;;;5032217;28;20046;-33
2021/06/07 01:36:01;;;;;;;1.73;1.10;;;23.00;54.60;;;;;;5032699;28;20028;-34
2021/06/07 01:38:26;;;;;;;1.20;0.75;;;23.10;54.50;;;;;;5033610;28;20032;-33
2021/06/07 01:40:54;;;;;;;1.42;1.00;;;23.00;54.40;;;;;;5028210;28;20155;-31
2021/06/07 01:43:19;;;;;;;1.27;1.00;;;23.00;54.40;;;;;;5043431;28;20052;-32
2021/06/07 01:45:46;;;;;;;1.10;0.80;;;22.90;54.70;;;;;;5029220;28;20111;-35
2021/06/07 01:48:12;;;;;;;1.45;1.20;;;23.00;54.80;;;;;;5033567;28;20163;-33
2021/06/07 01:50:38;;;;;;;1.25;1.00;;;23.10;54.40;;;;;;5032103;28;20033;-33
2021/06/07 01:53:05;;;;;;;1.20;0.80;;;23.10;54.20;;;;;;5029676;28;20036;-33
2021/06/07 01:55:52;;;;;;;1.55;1.13;;;23.10;54.20;;;;;;5045770;28;20029;-33
2021/06/07 01:58:18;;;;;;;1.98;1.17;;;23.10;54.20;;;;;;5035995;28;20117;-33
2021/06/07 02:00:45;;;;;;;1.33;1.23;;;23.10;54.20;;;;;;5029703;28;20470;-35
2021/06/07 02:03:13;;;;;;;1.27;0.90;;;23.10;54.20;;;;;;5027534;28;20029;-33
2021/06/07 02:05:43;;;;;;;1.58;1.05;;;23.00;54.20;;;;;;5031559;28;20038;-34
2021/06/07 02:08:10;;;;;;;1.42;1.00;;;23.00;54.30;;;;;;5037810;28;20476;-33
2021/06/07 02:10:43;;;;;;;2.45;0.90;;;23.00;54.30;;;;;;5033518;28;20400;-36
2021/06/07 02:13:08;;;;;;;1.52;1.10;;;23.00;54.30;;;;;;5034225;28;20064;-34
2021/06/07 02:15:34;;;;;;;1.48;0.90;;;23.00;54.30;;;;;;5033153;28;20049;-34
2021/06/07 02:18:01;;;;;;;1.60;1.10;;;23.00;54.20;;;;;;5036980;28;20037;-34
2021/06/07 02:20:27;;;;;;;1.17;0.80;;;23.00;54.30;;;;;;5032137;28;20017;-34
2021/06/07 02:22:52;;;;;;;1.10;1.00;;;22.90;54.30;;;;;;5027460;28;20104;-34
2021/06/07 02:25:19;;;;;;;1.27;1.10;;;23.00;54.30;;;;;;5047950;28;20021;-34
2021/06/07 02:27:44;;;;;;;1.20;1.10;;;23.00;54.20;;;;;;5033260;28;20092;-34
2021/06/07 02:30:13;;;;;;;1.00;0.98;;;22.90;54.50;;;;;;5034438;28;20033;-34
2021/06/07 02:32:38;;;;;;;1.55;1.13;;;22.90;54.40;;;;;;5056568;28;20078;-34
2021/06/07 02:35:06;;;;;;;0.80;0.80;;;22.90;54.20;;;;;;5031972;28;20030;-34
2021/06/07 02:37:31;;;;;;;1.30;1.20;;;22.90;54.30;;;;;;5033090;28;20040;-34
2021/06/07 02:39:57;;;;;;;1.20;1.10;;;22.90;54.30;;;;;;5051848;28;20033;-34
2021/06/07 02:42:23;;;;;;;1.38;1.00;;;22.90;54.30;;;;;;5036828;28;20029;-34
2021/06/07 02:44:48;;;;;;;1.25;1.15;;;22.90;54.30;;;;;;5035183;28;20060;-34
2021/06/07 02:47:15;;;;;;;2.20;1.20;;;22.80;54.40;;;;;;5048948;28;20021;-34
2021/06/07 02:49:40;;;;;;;1.38;1.10;;;22.80;54.40;;;;;;5034096;28;20088;-35
2021/06/07 02:52:06;;;;;;;1.27;1.13;;;22.80;54.30;;;;;;5030921;28;20123;-35
2021/06/07 02:54:31;;;;;;;1.45;1.10;;;22.80;54.30;;;;;;5034836;28;20041;-34
2021/06/07 02:56:57;;;;;;;1.27;1.17;;;22.80;54.30;;;;;;5034076;28;20123;-35
2021/06/07 02:59:23;;;;;;;0.88;0.80;;;22.80;54.40;;;;;;5034386;28;20030;-34
2021/06/07 03:01:48;;;;;;;1.35;1.10;;;22.80;54.40;;;;;;5031232;28;20427;-33
2021/06/07 03:04:14;;;;;;;0.82;0.82;;;22.80;54.50;;;;;;5030482;28;20503;-33
2021/06/07 03:06:39;;;;;;;1.50;1.10;;;22.70;54.50;;;;;;5035107;28;20045;-34
2021/06/07 03:09:05;;;;;;;0.82;0.80;;;22.70;54.40;;;;;;5032476;28;20480;-34
2021/06/07 03:11:30;;;;;;;1.27;1.00;;;22.70;54.40;;;;;;5031570;28;20029;-34
2021/06/07 03:13:56;;;;;;;1.05;0.95;;;22.70;54.40;;;;;;5031535;28;20048;-34
2021/06/07 03:16:22;;;;;;;1.92;1.00;;;22.70;54.50;;;;;;5030699;28;20278;-34
2021/06/07 03:18:47;;;;;;;1.60;0.95;;;22.80;54.40;;;;;;5031727;28;20029;-35
2021/06/07 03:21:13;;;;;;;1.58;1.00;;;22.70;54.60;;;;;;5027820;28;20028;-33
2021/06/07 03:23:39;;;;;;;1.75;1.15;;;22.70;54.60;;;;;;5030160;28;20030;-34
2021/06/07 03:26:05;;;;;;;1.38;1.13;;;22.70;54.40;;;;;;5032340;28;20030;-33
2021/06/07 03:28:30;;;;;;;1.48;1.20;;;22.70;54.50;;;;;;5030931;28;20029;-32
2021/06/07 03:30:56;;;;;;;2.05;1.40;;;22.70;54.70;;;;;;5029329;28;20095;-33
2021/06/07 03:33:22;;;;;;;1.30;1.10;;;22.60;55.00;;;;;;5028873;28;20531;-35
2021/06/07 03:35:48;;;;;;;1.27;1.13;;;22.60;55.00;;;;;;5035495;28;20044;-33
2021/06/07 03:38:15;;;;;;;1.90;1.20;;;22.70;55.00;;;;;;5048909;28;20060;-33
2021/06/07 03:40:42;;;;;;;1.67;1.02;;;22.70;54.80;;;;;;5037845;28;20029;-34
2021/06/07 03:43:07;;;;;;;1.50;1.10;;;22.70;54.90;;;;;;5038608;28;20038;-34
2021/06/07 03:45:33;;;;;;;2.00;1.30;;;22.70;54.80;;;;;;5038686;28;20101;-34
2021/06/07 03:47:59;;;;;;;1.65;1.10;;;22.70;55.00;;;;;;5041963;28;20033;-34
2021/06/07 03:50:25;;;;;;;1.77;1.23;;;22.60;55.40;;;;;;5034330;28;20021;-34
2021/06/07 03:52:51;;;;;;;1.80;1.20;;;22.60;55.60;;;;;;5016971;28;20061;-34
2021/06/07 03:55:18;;;;;;;2.00;1.30;;;22.40;55.80;;;;;;5037530;28;20057;-35
2021/06/07 03:57:43;;;;;;;2.03;1.60;;;22.50;56.50;;;;;;5036103;28;20119;-31
2021/06/07 04:00:10;;;;;;;1.35;1.23;;;22.50;55.80;;;;;;5034933;28;20468;-34
2021/06/07 04:02:36;;;;;;;3.33;1.63;;;22.40;56.10;;;;;;5031262;28;20020;-35
2021/06/07 04:05:02;;;;;;;1.73;1.60;;;22.30;56.80;;;;;;5030597;28;20377;-34
2021/06/07 04:07:28;;;;;;;2.63;1.63;;;22.30;56.40;;;;;;5034849;28;20029;-35
2021/06/07 04:09:53;;;;;;;1.70;1.60;;;22.40;56.90;;;;;;5034923;28;20072;-36
2021/06/07 04:12:19;;;;;;;2.72;2.00;;;22.40;56.80;;;;;;5033519;28;20018;-35
2021/06/07 04:14:44;;;;;;;1.98;1.65;;;22.50;55.90;;;;;;5033495;28;20430;-33
2021/06/07 04:17:10;;;;;;;1.80;1.70;;;22.50;55.90;;;;;;5031575;28;20108;-36
2021/06/07 04:19:36;;;;;;;1.83;1.67;;;22.60;56.00;;;;;;5032794;28;20036;-38
2021/06/07 04:22:01;;;;;;;2.10;1.90;;;22.40;56.50;;;;;;5036894;28;20021;-34
2021/06/07 04:24:27;;;;;;;1.70;1.60;;;22.40;56.30;;;;;;5030382;28;20069;-34
2021/06/07 04:26:53;;;;;;;1.83;1.70;;;22.50;56.40;;;;;;5030491;28;20570;-34
2021/06/07 04:29:18;;;;;;;2.33;1.83;;;22.40;56.60;;;;;;5029419;28;20047;-34
2021/06/07 04:31:44;;;;;;;4.05;2.00;;;22.50;56.50;;;;;;5030043;28;20518;-34
2021/06/07 04:34:09;;;;;;;1.90;1.70;;;22.40;56.40;;;;;;5034788;28;20167;-34
2021/06/07 04:36:35;;;;;;;1.95;1.80;;;22.60;56.20;;;;;;5034542;28;20399;-34
2021/06/07 04:39:02;;;;;;;2.63;2.05;;;22.60;56.70;;;;;;5038102;28;20037;-34
2021/06/07 04:41:27;;;;;;;1.70;1.60;;;22.30;56.90;;;;;;5032452;28;20021;-34
2021/06/07 04:43:53;;;;;;;1.70;1.60;;;22.40;57.20;;;;;;5028682;28;20040;-33
2021/06/07 04:46:19;;;;;;;1.80;1.70;;;22.10;57.50;;;;;;5031182;28;20022;-33
2021/06/07 04:48:44;;;;;;;1.90;1.80;;;22.30;57.50;;;;;;5033758;28;20041;-34
2021/06/07 04:51:10;;;;;;;1.90;1.80;;;22.40;57.30;;;;;;5032209;28;20456;-33
2021/06/07 04:53:35;;;;;;;3.72;1.90;;;22.50;57.10;;;;;;5029102;28;20056;-36
2021/06/07 04:56:01;;;;;;;2.15;1.63;;;22.40;57.50;;;;;;5032445;28;20029;-43
2021/06/07 04:58:28;;;;;;;1.52;1.42;;;22.30;57.80;;;;;;5028957;28;20087;-37
2021/06/07 05:00:58;;;;;;;1.63;1.52;;;22.20;58.50;;;;;;5033898;28;20037;-42
2021/06/07 05:03:26;;;;;;;1.48;1.38;;;22.30;58.70;;;;;;5034253;28;20056;-44
2021/06/07 05:05:55;;;;;;;2.88;1.55;;;22.30;58.40;;;;;;5032231;28;20027;-43
2021/06/07 05:08:22;;;;;;;3.00;1.60;;;22.30;58.10;;;;;;5033073;28;20025;-43
2021/06/07 05:10:47;;;;;;;1.70;1.50;;;22.30;58.10;;;;;;5028935;28;20082;-44
2021/06/07 05:13:13;;;;;;;2.45;1.25;;;22.30;58.00;;;;;;5043401;28;20046;-41
2021/06/07 05:15:38;;;;;;;2.28;1.40;;;22.30;58.50;;;;;;5024973;28;20511;-41
2021/06/07 05:18:05;;;;;;;1.55;1.45;;;22.20;58.60;;;;;;5032389;28;20082;-41
2021/06/07 05:20:31;;;;;;;2.63;1.30;;;22.30;58.50;;;;;;5032099;28;20537;-42
2021/06/07 05:22:57;;;;;;;1.95;1.30;;;22.30;58.80;;;;;;5028780;28;20025;-41
2021/06/07 05:25:23;;;;;;;2.92;1.40;;;22.30;58.60;;;;;;5035774;28;20550;-41
2021/06/07 05:27:49;;;;;;;1.40;1.30;;;22.40;58.50;;;;;;4682161;28;10000266;-41
2021/06/07 05:30:16;;;;;;;2.58;1.40;;;22.50;58.70;;;;;;5029956;28;20449;-43
2021/06/07 05:32:41;;;;;;;2.97;1.50;;;22.40;58.70;;;;;;5029048;28;20065;-41
2021/06/07 05:35:08;;;;;;;2.15;1.30;;;22.50;58.50;;;;;;5025103;28;20030;-41
2021/06/07 05:37:34;;;;;;;1.95;1.67;;;22.50;58.40;;;;;;5026678;28;20033;-42
2021/06/07 05:40:00;;;;;;;1.70;1.60;;;22.40;59.10;;;;;;5032361;28;20041;-41
2021/06/07 05:42:25;;;;;;;1.75;1.65;;;22.30;58.70;;;;;;5028723;28;20029;-41
2021/06/07 05:44:51;;;;;;;1.35;1.23;;;22.40;59.40;;;;;;5031981;28;20044;-42
2021/06/07 05:47:17;;;;;;;3.55;1.45;;;22.40;59.60;;;;;;5029673;28;20395;-41
2021/06/07 05:49:42;;;;;;;1.50;1.40;;;22.30;58.80;;;;;;5030795;28;20052;-41
2021/06/07 05:52:08;;;;;;;1.50;1.40;;;22.50;58.80;;;;;;5029705;28;20025;-42
2021/06/07 05:54:37;;;;;;;1.88;1.45;;;22.50;58.70;;;;;;5032403;28;20041;-41
2021/06/07 05:57:04;;;;;;;1.90;1.80;;;22.40;58.80;;;;;;5031784;28;20045;-41
2021/06/07 05:59:29;;;;;;;1.50;1.40;;;22.50;58.80;;;;;;5031633;28;20025;-42
2021/06/07 06:01:55;;;;;;;1.45;1.35;;;22.40;58.90;;;;;;5027628;28;20526;-43
2021/06/07 06:04:22;;;;;;;2.00;1.90;;;22.50;59.00;;;;;;5029548;28;20034;-41
2021/06/07 06:06:48;;;;;;;1.73;1.63;;;22.50;58.90;;;;;;5038161;28;20037;-43
2021/06/07 06:09:13;;;;;;;1.77;1.67;;;22.40;59.00;;;;;;5051861;28;20032;-43
2021/06/07 06:11:41;;;;;;;1.65;1.58;;;22.50;59.00;;;;;;5035474;28;20028;-43
2021/06/07 06:14:06;;;;;;;1.75;1.65;;;22.50;59.40;;;;;;5032516;28;20333;-42
2021/06/07 06:16:32;;;;;;;1.58;1.48;;;22.50;59.00;;;;;;5036762;28;20025;-43
2021/06/07 06:18:57;;;;;;;1.63;1.52;;;22.40;59.10;;;;;;5036740;28;20029;-43
2021/06/07 06:21:26;;;;;;;1.90;1.50;;;22.50;59.10;;;;;;5035081;28;20057;-41
2021/06/07 06:23:53;;;;;;;3.25;1.70;;;22.50;59.00;;;;;;5035378;28;20092;-44
2021/06/07 06:26:18;;;;;;;1.60;1.50;;;22.50;59.00;;;;;;5034221;28;20115;-42
2021/06/07 06:28:44;;;;;;;1.63;1.58;;;22.50;59.00;;;;;;5033392;28;20113;-39
2021/06/07 06:31:09;;;;;;;1.50;1.50;;;22.50;59.10;;;;;;5037458;28;20029;-41
2021/06/07 06:33:35;;;;;;;2.00;1.80;;;22.50;59.00;;;;;;5037339;28;20041;-42
2021/06/07 06:36:00;;;;;;;1.90;1.80;;;22.60;58.80;;;;;;5035436;28;20392;-41
2021/06/07 06:38:26;;;;;;;1.63;1.52;;;22.60;58.90;;;;;;5035299;28;20025;-42
2021/06/07 06:40:55;;;;;;;1.80;1.70;;;22.60;58.80;;;;;;5016072;28;20022;-41
2021/06/07 06:43:21;;;;;;;1.70;1.60;;;22.60;59.10;;;;;;5034966;28;20060;-42
2021/06/07 06:45:46;;;;;;;1.70;1.60;;;22.60;59.00;;;;;;5034920;28;20037;-39
2021/06/07 06:48:12;;;;;;;1.73;1.63;;;22.60;59.00;;;;;;5035235;28;20388;-41
2021/06/07 06:50:39;;;;;;;1.80;1.70;;;22.60;59.10;;;;;;5031851;28;20117;-43
2021/06/07 06:53:11;;;;;;;1.77;1.67;;;22.60;58.90;;;;;;5032107;28;20044;-43
2021/06/07 06:55:37;;;;;;;1.70;1.60;;;22.60;59.00;;;;;;5034659;28;20053;-43
2021/06/07 06:58:03;;;;;;;1.88;1.77;;;22.60;59.00;;;;;;5036264;28;20559;-41
2021/06/07 07:00:31;;;;;;;1.80;1.70;;;22.70;58.80;;;;;;5034464;28;20068;-41
2021/06/07 07:02:57;;;;;;;1.58;1.52;;;22.70;58.60;;;;;;5034685;28;20036;-43
2021/06/07 07:05:22;;;;;;;1.50;1.50;;;22.60;58.90;;;;;;5033755;28;20029;-43
2021/06/07 07:07:48;;;;;;;1.58;1.50;;;22.70;58.60;;;;;;5031268;28;20026;-40
2021/06/07 07:10:13;;;;;;;1.67;1.65;;;22.60;58.90;;;;;;5037652;28;20499;-41
2021/06/07 07:12:39;;;;;;;1.77;1.67;;;22.50;59.30;;;;;;5036483;28;20029;-42
2021/06/07 07:15:05;;;;;;;1.40;1.40;;;22.60;59.20;;;;;;5033093;28;20076;-40
2021/06/07 07:17:31;;;;;;;1.70;1.60;;;22.60;59.20;;;;;;5029111;28;20017;-42
2021/06/07 07:19:56;;;;;;;1.50;1.50;;;22.70;59.00;;;;;;5030129;28;20449;-40
2021/06/07 07:22:22;;;;;;;1.33;1.33;;;22.80;58.80;;;;;;5037944;28;20028;-44
2021/06/07 07:24:49;;;;;;;1.52;1.42;;;22.90;58.70;;;;;;5033699;28;20565;-42
2021/06/07 07:27:15;;;;;;;1.23;1.23;;;22.80;58.80;;;;;;5030751;28;20060;-41
2021/06/07 07:29:41;;;;;;;1.70;1.60;;;22.70;58.90;;;;;;5034020;28;20025;-41
2021/06/07 07:32:07;;;;;;;1.27;1.27;;;22.70;58.90;;;;;;5031483;28;20547;-41
2021/06/07 07:34:33;;;;;;;1.25;1.25;;;22.60;59.20;;;;;;5034002;28;20042;-41
2021/06/07 07:36:59;;;;;;;1.20;1.20;;;22.70;59.00;;;;;;5046178;28;20052;-41
2021/06/07 07:39:25;;;;;;;1.40;1.30;;;22.70;59.00;;;;;;5031720;28;20026;-41
2021/06/07 07:41:50;;;;;;;1.77;1.20;;;22.80;59.00;;;;;;5041188;28;20033;-41
2021/06/07 07:44:17;;;;;;;1.02;1.02;;;22.60;59.20;;;;;;5033929;28;20028;-42
2021/06/07 07:46:42;;;;;;;1.38;1.27;;;22.60;59.20;;;;;;5032347;28;20445;-42
2021/06/07 07:49:08;;;;;;;1.05;1.05;;;22.70;59.30;;;;;;5037502;28;20398;-41
2021/06/07 07:51:33;;;;;;;1.50;1.17;;;22.50;59.70;;;;;;5033839;28;20028;-42
2021/06/07 07:53:59;;;;;;;0.93;0.93;;;22.40;59.60;;;;;;5028609;28;20033;-42
2021/06/07 07:56:25;;;;;;;0.90;0.90;;;22.70;58.70;;;;;;5040166;28;20049;-41
2021/06/07 07:58:50;;;;;;;0.90;0.90;;;22.90;58.20;;;;;;5030401;28;20026;-41
2021/06/07 08:01:16;;;;;;;1.25;1.17;;;23.20;57.70;;;;;;5047091;28;20104;-41
2021/06/07 08:03:42;;;;;;;1.00;1.00;;;23.30;57.50;;;;;;5031597;28;20108;-42
2021/06/07 08:06:08;;;;;;;2.20;0.90;;;23.20;57.80;;;;;;5033142;28;20045;-42
2021/06/07 08:08:34;;;;;;;1.08;0.73;;;23.40;57.40;;;;;;5034128;28;20033;-42
2021/06/07 08:11:00;;;;;;;0.80;0.80;;;23.40;57.30;;;;;;5030184;28;20022;-42
2021/06/07 08:13:25;;;;;;;1.00;0.93;;;23.50;57.80;;;;;;5031735;28;20037;-42
2021/06/07 08:15:51;;;;;;;0.82;0.82;;;23.60;56.90;;;;;;5034004;28;20368;-42
2021/06/07 08:18:17;;;;;;;0.90;0.90;;;23.50;56.90;;;;;;5032668;28;20032;-41
2021/06/07 08:20:43;;;;;;;0.88;0.88;;;23.50;57.00;;;;;;5034038;28;20043;-42
2021/06/07 08:23:09;;;;;;;1.27;0.80;;;23.60;56.60;;;;;;5030539;28;20022;-42
2021/06/07 08:25:34;;;;;;;1.05;0.98;;;23.60;56.60;;;;;;5030838;28;20033;-42
2021/06/07 08:28:00;;;;;;;1.85;0.90;;;23.60;56.70;;;;;;5035762;28;20074;-42
2021/06/07 08:30:28;;;;;;;1.38;0.70;;;23.50;56.80;;;;;;5040470;28;20114;-42
2021/06/07 08:32:53;;;;;;;0.80;0.80;;;23.60;56.70;;;;;;5042923;28;20502;-42
2021/06/07 08:35:19;;;;;;;1.58;0.80;;;23.60;56.60;;;;;;5043912;28;20115;-42
2021/06/07 08:37:45;;;;;;;1.10;1.00;;;23.70;56.50;;;;;;5030407;28;20078;-42
2021/06/07 08:40:11;;;;;;;1.00;1.00;;;23.70;56.50;;;;;;5035195;28;20041;-42
2021/06/07 08:42:40;;;;;;;1.10;1.00;;;23.80;56.30;;;;;;5032496;28;20029;-42
2021/06/07 08:45:08;;;;;;;0.70;0.70;;;23.70;56.70;;;;;;5034570;28;20040;-42
2021/06/07 08:47:33;;;;;;;0.90;0.90;;;23.70;56.50;;;;;;5032622;28;20021;-42
2021/06/07 08:49:59;;;;;;;1.13;1.00;;;23.60;56.70;;;;;;5028947;28;20108;-43
2021/06/07 08:52:25;;;;;;;0.85;0.85;;;23.80;56.50;;;;;;5039027;28;20404;-44
2021/06/07 08:54:50;;;;;;;0.80;0.80;;;23.60;56.90;;;;;;5053271;28;20613;-42
2021/06/07 08:57:18;;;;;;;0.80;0.80;;;23.70;56.90;;;;;;5052525;28;20048;-41
2021/06/07 08:59:44;;;;;;;1.20;1.10;;;23.70;56.50;;;;;;5052938;28;20060;-41
2021/06/07 09:02:10;;;;;;;0.80;0.80;;;23.80;56.30;;;;;;5052305;28;20027;-43
2021/06/07 09:04:49;;;;;;;1.90;1.10;;;23.90;56.00;;;;;;5036208;28;20100;-43
2021/06/07 09:07:14;;;;;;;1.95;1.00;;;23.90;55.90;;;;;;5055016;28;20048;-43
2021/06/07 09:09:40;;;;;;;1.05;1.00;;;23.90;55.80;;;;;;5054050;28;20060;-41
2021/06/07 09:12:09;;;;;;;1.00;0.90;;;23.90;56.20;;;;;;5055940;28;20095;-42
2021/06/07 09:14:39;;;;;;;1.35;0.88;;;23.90;56.00;;;;;;5064452;28;20491;-41
2021/06/07 09:17:21;;;;;;;0.90;0.80;;;23.90;56.10;;;;;;5051546;28;20167;-42
2021/06/07 09:19:47;;;;;;;1.02;0.93;;;23.80;56.40;;;;;;5050015;28;20023;-41
2021/06/07 09:22:21;;;;;;;0.90;0.90;;;23.90;55.90;;;;;;5054409;28;20105;-43
2021/06/07 09:25:07;;;;;;;0.70;0.70;;;24.00;55.70;;;;;;5054362;28;20036;-42
2021/06/07 09:27:33;;;;;;;1.30;1.20;;;23.80;56.20;;;;;;5054059;28;20496;-42
2021/06/07 09:29:59;;;;;;;1.00;0.90;;;23.90;55.90;;;;;;5053949;28;20032;-42
2021/06/07 09:32:24;;;;;;;2.38;1.00;;;24.00;55.60;;;;;;5053934;28;20105;-42
2021/06/07 09:35:09;;;;;;;0.90;0.90;;;24.00;55.70;;;;;;5049305;28;20498;-42
2021/06/07 09:37:35;;;;;;;0.73;0.73;;;24.00;55.70;;;;;;5066045;28;20163;-42
2021/06/07 09:40:20;;;;;;;0.90;0.90;;;24.10;55.50;;;;;;5058011;28;20098;-42
2021/06/07 09:43:01;;;;;;;0.90;0.90;;;24.00;55.70;;;;;;5058041;28;20029;-43
2021/06/07 09:45:44;;;;;;;1.35;1.35;;;24.00;55.90;;;;;;5057837;28;20068;-42
2021/06/07 09:48:14;;;;;;;1.33;1.20;;;24.00;55.80;;;;;;5057727;28;20071;-42
2021/06/07 09:50:52;;;;;;;1.10;1.00;;;24.00;56.50;;;;;;5057898;28;20029;-42
2021/06/07 09:53:44;;;;;;;1.85;1.13;;;24.00;56.10;;;;;;5057000;28;20502;-43
2021/06/07 09:56:09;;;;;;;1.13;1.02;;;24.10;56.30;;;;;;5042242;28;20100;-43
2021/06/07 09:58:36;;;;;;;1.35;1.20;;;23.90;56.80;;;;;;5055593;28;20539;-46
2021/06/07 10:01:08;;;;;;;1.42;1.33;;;23.90;56.60;;;;;;5058871;28;20146;-43
2021/06/07 10:03:39;;;;;;;1.58;1.00;;;23.90;57.90;;;;;;5056513;28;20079;-44
2021/06/07 10:06:30;;;;;;;1.63;1.10;;;24.00;57.00;;;;;;5056200;28;20037;-43
2021/06/07 10:08:58;;;;;;;0.90;0.90;;;24.00;57.30;;;;;;5057199;28;20107;-38
2021/06/07 10:11:29;;;;;;;1.90;1.10;;;24.00;57.70;;;;;;5057045;28;20041;-47
2021/06/07 10:14:07;;;;;;;2.75;1.00;;;24.10;57.50;;;;;;5035847;28;20053;-44
2021/06/07 10:16:33;;;;;;;1.30;1.20;;;23.90;57.60;;;;;;5055612;28;20566;-43
2021/06/07 10:19:03;;;;;;;1.25;1.15;;;24.00;57.40;;;;;;5058785;28;20025;-41
2021/06/07 10:21:29;;;;;;;1.27;1.27;;;24.10;57.30;;;;;;5057276;28;20083;-43
2021/06/07 10:23:54;;;;;;;1.33;1.23;;;24.10;57.90;;;;;;5057141;28;20159;-43
2021/06/07 10:26:20;;;;;;;2.22;1.70;;;24.00;57.10;;;;;;5055437;28;20487;-43
2021/06/07 10:28:46;;;;;;;1.40;1.30;;;24.10;56.90;;;;;;5053549;28;20047;-44
2021/06/07 10:31:16;;;;;;;2.58;1.25;;;24.10;56.40;;;;;;5039661;28;20032;-43
2021/06/07 10:33:42;;;;;;;1.30;1.30;;;24.10;56.30;;;;;;5062979;28;20123;-42
2021/06/07 10:36:23;;;;;;;1.30;1.17;;;24.10;56.30;;;;;;5062334;28;20051;-42
2021/06/07 10:38:49;;;;;;;1.10;1.10;;;24.10;55.90;;;;;;5055942;28;20032;-42
2021/06/07 10:41:26;;;;;;;1.38;1.23;;;24.20;55.80;;;;;;5060567;28;20368;-41
2021/06/07 10:43:58;;;;;;;1.63;1.23;;;24.30;55.40;;;;;;5036923;28;20044;-41
2021/06/07 10:46:26;;;;;;;1.33;1.20;;;24.30;55.20;;;;;;5065229;28;20076;-42
2021/06/07 10:48:53;;;;;;;1.20;1.10;;;24.30;55.30;;;;;;5057606;28;20043;-42
2021/06/07 10:51:24;;;;;;;1.95;1.40;;;24.40;55.00;;;;;;5054339;28;20089;-42
2021/06/07 10:53:53;;;;;;;0.80;0.80;;;24.20;56.20;;;;;;5035628;28;20032;-42
2021/06/07 10:56:26;;;;;;;1.08;0.93;;;24.30;55.30;;;;;;5053674;28;20017;-41
2021/06/07 10:58:58;;;;;;;1.08;1.08;;;24.20;56.10;;;;;;5051339;28;20032;-39
2021/06/07 11:01:39;;;;;;;1.42;1.00;;;24.10;55.90;;;;;;5053947;28;20101;-38
2021/06/07 11:04:05;;;;;;;1.05;1.05;;;24.20;55.80;;;;;;5039022;28;20029;-43
2021/06/07 11:06:31;;;;;;;2.35;0.85;;;24.20;55.60;;;;;;5055535;28;20075;-42
2021/06/07 11:09:07;;;;;;;0.90;0.90;;;24.20;55.70;;;;;;5033780;28;20025;-42
2021/06/07 11:11:50;;;;;;;2.50;0.88;;;24.30;55.50;;;;;;5054826;28;20028;-42
2021/06/07 11:14:18;;;;;;;1.58;0.80;;;24.30;55.30;;;;;;5037155;28;20495;-43
2021/06/07 11:16:45;;;;;;;1.23;1.13;;;24.30;55.40;;;;;;5051905;28;20519;-42
2021/06/07 11:19:15;;;;;;;1.77;1.23;;;24.30;55.10;;;;;;5056900;28;20033;-42
2021/06/07 11:22:02;;;;;;;0.88;0.80;;;24.20;55.30;;;;;;5050304;28;20025;-42
2021/06/07 11:24:35;;;;;;;1.00;1.00;;;24.30;55.40;;;;;;5055645;28;20107;-41
2021/06/07 11:27:04;;;;;;;1.73;1.30;;;24.20;55.50;;;;;;5055913;28;20059;-42
2021/06/07 11:29:30;;;;;;;1.70;1.00;;;24.30;55.40;;;;;;5056020;28;20029;-42
2021/06/07 11:31:56;;;;;;;2.88;1.00;;;24.20;55.60;;;;;;5052282;28;20377;-42
2021/06/07 11:34:44;;;;;;;3.42;1.27;;;24.30;55.40;;;;;;5057185;28;20037;-42
2021/06/07 11:37:17;;;;;;;1.40;1.20;;;24.20;55.50;;;;;;5055988;28;20025;-41
2021/06/07 11:39:42;;;;;;;1.15;1.05;;;24.30;55.50;;;;;;5055466;28;20041;-42
2021/06/07 11:42:08;;;;;;;1.10;0.95;;;24.40;55.30;;;;;;5055227;28;20028;-42
2021/06/07 11:44:57;;;;;;;0.90;0.90;;;24.40;55.10;;;;;;5055534;28;20046;-42
2021/06/07 11:47:45;;;;;;;1.15;0.80;;;24.40;55.00;;;;;;5042151;28;20549;-43
2021/06/07 11:50:16;;;;;;;1.65;1.08;;;24.50;54.90;;;;;;5053240;28;20475;-44
2021/06/07 11:52:50;;;;;;;1.20;1.17;;;24.40;55.50;;;;;;5052072;28;20029;-43
2021/06/07 11:55:35;;;;;;;1.27;0.80;;;24.40;55.30;;;;;;5057101;28;20032;-44
2021/06/07 11:58:04;;;;;;;;;;;24.40;55.20;;;;;;5056439;28;20045;-42
2021/06/07 12:00:33;;;;;;;1.08;0.80;;;24.40;55.40;;;;;;5056024;28;20359;-45
2021/06/07 12:03:07;;;;;;;0.98;0.95;;;24.40;55.40;;;;;;5041988;28;20100;-42
2021/06/07 12:05:33;;;;;;;3.67;0.95;;;24.30;56.10;;;;;;5055824;28;20028;-43
2021/06/07 12:08:03;;;;;;;1.10;1.10;;;24.30;55.70;;;;;;5066406;28;20040;-42
2021/06/07 12:10:29;;;;;;;1.33;0.90;;;24.30;55.70;;;;;;5054167;28;20025;-43
2021/06/07 12:12:55;;;;;;;1.23;0.90;;;24.20;55.80;;;;;;5038481;28;20032;-43
2021/06/07 12:15:21;;;;;;;1.50;0.95;;;24.00;56.00;;;;;;5033997;28;20718;-43
2021/06/07 12:17:48;;;;;;;1.00;0.80;;;24.10;56.00;;;;;;5054456;28;20116;-43
2021/06/07 12:20:18;;;;;;;0.80;0.80;;;24.30;55.70;;;;;;5051419;28;20876;-43
2021/06/07 12:22:47;;;;;;;0.88;0.88;;;24.30;55.40;;;;;;5057389;28;20037;-43
2021/06/07 12:30:39;;;;;;;1.02;0.80;;;24.40;54.80;;;;;;5062413;28;20028;-43
2021/06/07 12:33:05;;;;;;;0.95;0.82;;;24.30;54.90;;;;;;5043133;28;20474;-43
2021/06/07 12:35:35;;;;;;;0.80;0.80;;;24.40;54.80;;;;;;5053737;28;20040;-43
2021/06/07 12:38:08;;;;;;;1.17;1.08;;;24.10;55.30;;;;;;5051193;28;20021;-43
2021/06/07 12:40:44;;;;;;;1.30;1.10;;;24.00;55.50;;;;;;5052379;28;20029;-43
2021/06/07 12:43:10;;;;;;;0.70;0.70;;;24.00;55.70;;;;;;5053828;28;20499;-43
2021/06/07 12:45:38;;;;;;;1.92;0.88;;;24.00;55.70;;;;;;5051890;28;20107;-43
2021/06/07 12:48:17;;;;;;;1.00;0.90;;;24.10;55.50;;;;;;5053953;28;20017;-43
2021/06/07 12:50:50;;;;;;;0.90;0.75;;;24.00;55.70;;;;;;5053477;28;20086;-43
2021/06/07 12:53:17;;;;;;;0.90;0.90;;;24.00;56.30;;;;;;5054999;28;20067;-45
2021/06/07 12:55:44;;;;;;;0.90;0.90;;;24.00;55.70;;;;;;5051133;28;20037;-44